Time,TemperatureF,DewpointF,PressureIn,WindDirection,WindDirectionDegrees,WindSpeedMPH,WindSpeedGustMPH,Humidity,HourlyPrecipIn,Conditions,Clouds,dailyrainin,SoftwareType,DateUTC
2014-02-02 00:05:00,30.6,24.0,30.24,NNE,29,10.0,18.0,77,0.00,,,0.00,weatherlink.com 1.10,2014-02-02 06:05:00,
2014-02-02 00:20:00,30.5,24.0,30.25,NNE,33,12.0,16.0,77,0.00,,,0.00,weatherlink.com 1.10,2014-02-02 06:20:00,
2014-02-02 00:35:00,30.2,24.0,30.26,North,358,10.0,19.0,77,0.00,,,0.00,weatherlink.com 1.10,2014-02-02 06:35:00,
2014-02-02 00:51:00,30.0,24.0,30.26,NE,47,9.0,16.0,78,0.00,,,0.00,weatherlink.com 1.10,2014-02-02 06:51:00,
2014-02-02 01:06:00,29.9,24.0,30.26,NNE,28,8.0,17.0,78,0.00,,,0.00,weatherlink.com 1.10,2014-02-02 07:06:00,
2014-02-02 01:21:00,29.9,24.0,30.26,NNE,33,14.0,16.0,78,0.00,,,0.00,weatherlink.com 1.10,2014-02-02 07:21:00,
2014-02-02 01:36:00,29.8,24.0,30.25,NE,34,12.0,20.0,78,0.00,,,0.00,weatherlink.com 1.10,2014-02-02 07:36:00,
2014-02-02 01:51:00,29.7,24.0,30.24,NE,42,9.0,18.0,79,0.00,,,0.00,weatherlink.com 1.10,2014-02-02 07:51:00,
2014-02-02 02:06:00,29.6,24.0,30.23,NNE,33,10.0,19.0,79,0.00,,,0.00,weatherlink.com 1.10,2014-02-02 08:06:00,
2014-02-02 02:21:00,29.6,24.0,30.23,NE,51,13.0,21.0,79,0.00,,,0.00,weatherlink.com 1.10,2014-02-02 08:21:00,
2014-02-02 02:36:00,29.5,24.0,30.22,NE,48,16.0,23.0,79,0.00,,,0.00,weatherlink.com 1.10,2014-02-02 08:36:00,
2014-02-02 02:51:00,29.4,24.0,30.23,NE,41,8.0,25.0,79,0.00,,,0.00,weatherlink.com 1.10,2014-02-02 08:51:00,
2014-02-02 03:06:00,29.2,23.0,30.23,NNE,23,11.0,20.0,79,0.00,,,0.00,weatherlink.com 1.10,2014-02-02 09:06:00,
2014-02-02 03:21:00,28.9,23.0,30.24,NNE,23,7.0,17.0,79,0.00,,,0.00,weatherlink.com 1.10,2014-02-02 09:21:00,
2014-02-02 03:36:00,28.6,23.0,30.27,NE,37,17.0,18.0,78,0.00,,,0.00,weatherlink.com 1.10,2014-02-02 09:36:00,
2014-02-02 03:51:00,28.5,22.0,30.28,NE,42,11.0,18.0,78,0.00,,,0.00,weatherlink.com 1.10,2014-02-02 09:51:00,
2014-02-02 04:21:00,28.1,22.0,30.30,NNW,346,15.0,18.0,78,0.00,,,0.00,weatherlink.com 1.10,2014-02-02 10:21:00,
2014-02-02 04:36:00,27.7,21.0,30.28,NNE,19,11.0,18.0,76,0.00,,,0.00,weatherlink.com 1.10,2014-02-02 10:36:00,
2014-02-02 04:51:00,27.4,21.0,30.27,ENE,61,13.0,17.0,76,0.00,,,0.00,weatherlink.com 1.10,2014-02-02 10:51:00,
2014-02-02 05:06:00,27.0,21.0,30.27,NNW,337,6.0,20.0,77,0.00,,,0.00,weatherlink.com 1.10,2014-02-02 11:06:00,
2014-02-02 05:21:00,26.8,20.0,30.26,NNE,21,17.0,20.0,76,0.00,,,0.00,weatherlink.com 1.10,2014-02-02 11:21:00,
2014-02-02 05:36:00,26.5,20.0,30.26,NE,44,16.0,22.0,77,0.00,,,0.00,weatherlink.com 1.10,2014-02-02 11:36:00,
2014-02-02 05:51:00,26.2,20.0,30.25,NNW,333,10.0,19.0,78,0.00,,,0.00,weatherlink.com 1.10,2014-02-02 11:51:00,
2014-02-02 06:06:00,26.0,20.0,30.25,NE,39,10.0,19.0,77,0.00,,,0.00,weatherlink.com 1.10,2014-02-02 12:06:00,
2014-02-02 06:21:00,25.7,19.0,30.25,NE,45,12.0,26.0,77,0.00,,,0.00,weatherlink.com 1.10,2014-02-02 12:21:00,
2014-02-02 06:36:00,25.7,19.0,30.25,NE,37,11.0,19.0,77,0.00,,,0.00,weatherlink.com 1.10,2014-02-02 12:36:00,
2014-02-02 06:51:00,25.4,19.0,30.24,NE,47,13.0,20.0,76,0.00,,,0.00,weatherlink.com 1.10,2014-02-02 12:51:00,
2014-02-02 07:06:00,25.3,19.0,30.26,NNW,341,12.0,16.0,77,0.00,,,0.00,weatherlink.com 1.10,2014-02-02 13:06:00,
2014-02-02 07:21:00,25.0,18.0,30.28,ENE,65,10.0,21.0,76,0.00,,,0.00,weatherlink.com 1.10,2014-02-02 13:21:00,
2014-02-02 07:36:00,24.1,19.0,30.30,NNE,26,11.0,17.0,81,0.00,,,0.00,weatherlink.com 1.10,2014-02-02 13:36:00,
2014-02-02 07:51:00,23.2,20.0,30.31,North,352,7.0,16.0,86,0.00,,,0.00,weatherlink.com 1.10,2014-02-02 13:51:00,
2014-02-02 08:07:00,22.7,20.0,30.32,NE,41,5.0,14.0,88,0.00,,,0.00,weatherlink.com 1.10,2014-02-02 14:07:00,
2014-02-02 08:22:00,22.5,20.0,30.34,NNE,15,7.0,11.0,90,0.00,,,0.00,weatherlink.com 1.10,2014-02-02 14:22:00,
2014-02-02 08:37:00,22.4,20.0,30.35,NE,37,4.0,10.0,91,0.00,,,0.00,weatherlink.com 1.10,2014-02-02 14:37:00,
2014-02-02 08:52:00,22.2,20.0,30.36,ENE,65,6.0,12.0,91,0.00,,,0.00,weatherlink.com 1.10,2014-02-02 14:52:00,
2014-02-02 09:07:00,22.0,20.0,30.34,NNE,29,8.0,14.0,91,0.00,,,0.00,weatherlink.com 1.10,2014-02-02 15:07:00,
2014-02-02 09:22:00,21.6,19.0,30.34,North,10,9.0,16.0,91,0.00,,,0.00,weatherlink.com 1.10,2014-02-02 15:22:00,
2014-02-02 09:37:00,21.7,20.0,30.35,NNE,25,11.0,14.0,92,0.00,,,0.00,weatherlink.com 1.10,2014-02-02 15:37:00,
2014-02-02 09:52:00,21.8,20.0,30.37,NNE,27,6.0,12.0,91,0.00,,,0.00,weatherlink.com 1.10,2014-02-02 15:52:00,
2014-02-02 10:07:00,21.8,20.0,30.38,NE,41,8.0,11.0,91,0.00,,,0.00,weatherlink.com 1.10,2014-02-02 16:07:00,
2014-02-02 10:22:00,21.8,20.0,30.40,NE,44,5.0,12.0,91,0.00,,,0.00,weatherlink.com 1.10,2014-02-02 16:22:00,
2014-02-02 10:37:00,21.9,20.0,30.39,NE,42,12.0,14.0,91,0.00,,,0.00,weatherlink.com 1.10,2014-02-02 16:37:00,
2014-02-02 10:52:00,22.0,20.0,30.38,NNE,31,5.0,16.0,91,0.00,,,0.00,weatherlink.com 1.10,2014-02-02 16:52:00,
2014-02-02 11:07:00,-999.0,-99.9,30.37,North,-999,-999.0,-999.0,-999,0.00,,,0.00,weatherlink.com 1.10,2014-02-02 17:07:00,
2014-02-02 11:22:00,-999.0,-99.9,30.37,North,-999,-999.0,-999.0,-999,0.00,,,0.00,weatherlink.com 1.10,2014-02-02 17:22:00,
2014-02-02 11:37:00,-999.0,-99.9,30.37,North,-999,-999.0,-999.0,-999,0.00,,,0.00,weatherlink.com 1.10,2014-02-02 17:37:00,
2014-02-02 11:52:00,-999.0,-99.9,30.36,North,-999,-999.0,-999.0,-999,0.00,,,0.00,weatherlink.com 1.10,2014-02-02 17:52:00,
2014-02-02 12:07:00,23.9,20.0,30.36,North,353,8.0,14.0,85,0.00,,,0.00,weatherlink.com 1.10,2014-02-02 18:07:00,
2014-02-02 12:22:00,23.9,20.0,30.36,North,354,10.0,15.0,85,0.00,,,0.00,weatherlink.com 1.10,2014-02-02 18:22:00,
2014-02-02 12:37:00,24.1,20.0,30.35,North,356,11.0,16.0,84,0.00,,,0.00,weatherlink.com 1.10,2014-02-02 18:37:00,
2014-02-02 12:52:00,24.5,20.0,30.34,NNE,15,9.0,17.0,84,0.00,,,0.00,weatherlink.com 1.10,2014-02-02 18:52:00,
2014-02-02 13:07:00,25.6,21.0,30.33,North,1,7.0,15.0,83,0.00,,,0.00,weatherlink.com 1.10,2014-02-02 19:07:00,
2014-02-02 13:22:00,26.1,21.0,30.34,NE,52,6.0,13.0,82,0.00,,,0.00,weatherlink.com 1.10,2014-02-02 19:22:00,
2014-02-02 13:37:00,26.1,21.0,30.34,North,350,11.0,16.0,81,0.00,,,0.00,weatherlink.com 1.10,2014-02-02 19:37:00,
2014-02-02 13:52:00,26.6,21.0,30.33,North,5,11.0,14.0,80,0.00,,,0.00,weatherlink.com 1.10,2014-02-02 19:52:00,
2014-02-02 14:07:00,27.0,21.0,30.31,North,354,8.0,14.0,79,0.00,,,0.00,weatherlink.com 1.10,2014-02-02 20:07:00,
2014-02-02 14:22:00,26.6,20.0,30.31,North,355,10.0,19.0,77,0.00,,,0.00,weatherlink.com 1.10,2014-02-02 20:22:00,
2014-02-02 14:37:00,27.1,20.0,30.31,North,360,11.0,16.0,76,0.00,,,0.00,weatherlink.com 1.10,2014-02-02 20:37:00,
2014-02-02 14:52:00,28.0,21.0,30.30,North,10,13.0,15.0,75,0.00,,,0.00,weatherlink.com 1.10,2014-02-02 20:52:00,
2014-02-02 15:07:00,29.1,21.0,30.31,North,5,10.0,13.0,73,0.00,,,0.00,weatherlink.com 1.10,2014-02-02 21:07:00,
2014-02-02 15:22:00,29.0,21.0,30.31,North,1,11.0,15.0,71,0.00,,,0.00,weatherlink.com 1.10,2014-02-02 21:22:00,
2014-02-02 15:37:00,29.8,21.0,30.31,NNE,20,10.0,15.0,69,0.00,,,0.00,weatherlink.com 1.10,2014-02-02 21:37:00,
2014-02-02 15:52:00,30.2,20.0,30.32,NNE,15,9.0,13.0,67,0.00,,,0.00,weatherlink.com 1.10,2014-02-02 21:52:00,
2014-02-02 16:07:00,30.7,21.0,30.32,North,360,11.0,15.0,66,0.00,,,0.00,weatherlink.com 1.10,2014-02-02 22:07:00,
2014-02-02 16:22:00,31.6,21.0,30.31,NNE,25,5.0,14.0,64,0.00,,,0.00,weatherlink.com 1.10,2014-02-02 22:22:00,
2014-02-02 16:37:00,31.3,20.0,30.32,NE,39,4.0,9.0,63,0.00,,,0.00,weatherlink.com 1.10,2014-02-02 22:37:00,
2014-02-02 16:52:00,31.3,19.0,30.33,NE,42,6.0,12.0,61,0.01,,,0.01,weatherlink.com 1.10,2014-02-02 22:52:00,
2014-02-02 17:07:00,31.1,19.0,30.34,North,10,7.0,10.0,60,0.01,,,0.01,weatherlink.com 1.10,2014-02-02 23:07:00,
2014-02-02 17:22:00,31.1,18.0,30.34,NNE,20,7.0,9.0,59,0.01,,,0.01,weatherlink.com 1.10,2014-02-02 23:22:00,
2014-02-02 17:38:00,31.0,18.0,30.35,North,10,4.0,9.0,59,0.01,,,0.01,weatherlink.com 1.10,2014-02-02 23:38:00,
2014-02-02 17:53:00,30.6,18.0,30.34,NNE,19,4.0,6.0,60,0.00,,,0.01,weatherlink.com 1.10,2014-02-02 23:53:00,
2014-02-02 18:08:00,29.9,17.0,30.33,NNE,19,3.0,5.0,60,0.00,,,0.01,weatherlink.com 1.10,2014-02-03 00:08:00,
2014-02-02 18:23:00,29.0,17.0,30.34,NNE,19,3.0,5.0,61,0.00,,,0.01,weatherlink.com 1.10,2014-02-03 00:23:00,
2014-02-02 18:38:00,28.6,17.0,30.34,NNE,19,2.0,5.0,61,0.00,,,0.01,weatherlink.com 1.10,2014-02-03 00:38:00,
2014-02-02 18:53:00,27.8,16.0,30.34,NNE,19,3.0,4.0,61,0.00,,,0.01,weatherlink.com 1.10,2014-02-03 00:53:00,
2014-02-02 19:08:00,27.2,16.0,30.34,NNE,19,3.0,4.0,62,0.00,,,0.01,weatherlink.com 1.10,2014-02-03 01:08:00,
2014-02-02 19:23:00,26.6,15.0,30.34,NNE,19,2.0,3.0,62,0.00,,,0.01,weatherlink.com 1.10,2014-02-03 01:23:00,
2014-02-02 19:38:00,26.8,15.0,30.35,NNE,19,2.0,3.0,61,0.00,,,0.01,weatherlink.com 1.10,2014-02-03 01:38:00,
2014-02-02 19:53:00,26.8,15.0,30.36,NNE,19,1.0,2.0,61,0.00,,,0.01,weatherlink.com 1.10,2014-02-03 01:53:00,
2014-02-02 20:08:00,25.9,14.0,30.37,NNE,19,2.0,3.0,62,0.00,,,0.01,weatherlink.com 1.10,2014-02-03 02:08:00,
2014-02-02 20:23:00,24.1,14.0,30.36,NNE,19,0.0,0.0,66,0.00,,,0.01,weatherlink.com 1.10,2014-02-03 02:23:00,
2014-02-02 20:38:00,23.6,14.0,30.36,NNE,19,0.0,0.0,67,0.00,,,0.01,weatherlink.com 1.10,2014-02-03 02:38:00,
2014-02-02 20:53:00,24.1,14.0,30.36,NNE,19,0.0,2.0,66,0.00,,,0.01,weatherlink.com 1.10,2014-02-03 02:53:00,
2014-02-02 21:08:00,23.4,14.0,30.37,NNE,19,0.0,3.0,67,0.00,,,0.01,weatherlink.com 1.10,2014-02-03 03:08:00,
2014-02-02 21:23:00,21.5,13.0,30.37,NNE,19,0.0,0.0,70,0.00,,,0.01,weatherlink.com 1.10,2014-02-03 03:23:00,
2014-02-02 21:38:00,20.2,13.0,30.36,NNE,19,0.0,0.0,72,0.00,,,0.01,weatherlink.com 1.10,2014-02-03 03:38:00,
2014-02-02 21:53:00,20.7,13.0,30.36,NNE,19,0.0,2.0,73,0.00,,,0.01,weatherlink.com 1.10,2014-02-03 03:53:00,
2014-02-02 22:08:00,19.8,13.0,30.36,NNE,19,0.0,0.0,74,0.00,,,0.01,weatherlink.com 1.10,2014-02-03 04:08:00,
2014-02-02 22:23:00,20.0,13.0,30.37,NNE,19,0.0,0.0,75,0.00,,,0.01,weatherlink.com 1.10,2014-02-03 04:23:00,
2014-02-02 22:38:00,18.4,12.0,30.36,NNE,19,1.0,2.0,76,0.00,,,0.01,weatherlink.com 1.10,2014-02-03 04:38:00,
2014-02-02 22:53:00,19.7,13.0,30.37,NNE,19,0.0,0.0,75,0.00,,,0.01,weatherlink.com 1.10,2014-02-03 04:53:00,
2014-02-02 23:08:00,19.7,13.0,30.38,NNE,19,0.0,0.0,74,0.00,,,0.01,weatherlink.com 1.10,2014-02-03 05:08:00,
2014-02-02 23:23:00,19.5,12.0,30.38,NNE,19,0.0,0.0,74,0.00,,,0.01,weatherlink.com 1.10,2014-02-03 05:23:00,
2014-02-02 23:38:00,19.9,13.0,30.38,NNE,19,0.0,0.0,74,0.00,,,0.01,weatherlink.com 1.10,2014-02-03 05:38:00,
2014-02-02 23:53:00,18.5,12.0,30.37,NNE,19,0.0,0.0,75,0.00,,,0.01,weatherlink.com 1.10,2014-02-03 05:53:00,